sensor_id;sensor_type;location;lat;lon;timestamp;temperature;humidity
57664;DHT22;43493;53.098;6.064;2023-04-01T00:00:58;10.10;99.90
57664;DHT22;43493;53.098;6.064;2023-04-01T00:03:25;10.00;99.90
57664;DHT22;43493;53.098;6.064;2023-04-01T00:05:53;10.10;99.90
57664;DHT22;43493;53.098;6.064;2023-04-01T00:08:19;10.10;99.90
57664;DHT22;43493;53.098;6.064;2023-04-01T00:10:45;10.00;99.90
57664;DHT22;43493;53.098;6.064;2023-04-01T00:13:11;10.00;99.90
57664;DHT22;43493;53.098;6.064;2023-04-01T00:15:37;10.10;99.90
57664;DHT22;43493;53.098;6.064;2023-04-01T00:18:03;10.10;99.90
57664;DHT22;43493;53.098;6.064;2023-04-01T00:20:30;10.10;99.90
57664;DHT22;43493;53.098;6.064;2023-04-01T00:22:56;10.10;99.90
57664;DHT22;43493;53.098;6.064;2023-04-01T00:25:22;10.10;99.90
57664;DHT22;43493;53.098;6.064;2023-04-01T00:27:47;10.00;99.90
57664;DHT22;43493;53.098;6.064;2023-04-01T00:30:14;10.00;99.90
57664;DHT22;43493;53.098;6.064;2023-04-01T00:32:40;10.00;99.90
57664;DHT22;43493;53.098;6.064;2023-04-01T00:35:06;10.00;99.90
57664;DHT22;43493;53.098;6.064;2023-04-01T00:37:35;10.00;99.90
57664;DHT22;43493;53.098;6.064;2023-04-01T00:40:03;10.00;99.90
57664;DHT22;43493;53.098;6.064;2023-04-01T00:42:29;9.90;99.90
57664;DHT22;43493;53.098;6.064;2023-04-01T00:44:55;9.90;99.90
57664;DHT22;43493;53.098;6.064;2023-04-01T00:47:22;10.00;99.90
57664;DHT22;43493;53.098;6.064;2023-04-01T00:49:52;10.00;99.90
57664;DHT22;43493;53.098;6.064;2023-04-01T00:52:22;10.00;99.90
57664;DHT22;43493;53.098;6.064;2023-04-01T00:54:52;10.00;99.90
57664;DHT22;43493;53.098;6.064;2023-04-01T00:57:31;10.00;99.90
57664;DHT22;43493;53.098;6.064;2023-04-01T00:59:58;10.00;99.90
57664;DHT22;43493;53.098;6.064;2023-04-01T01:02:24;10.00;99.90
57664;DHT22;43493;53.098;6.064;2023-04-01T01:04:50;10.00;99.90
57664;DHT22;43493;53.098;6.064;2023-04-01T01:15:32;10.00;99.90
57664;DHT22;43493;53.098;6.064;2023-04-01T01:21:19;10.00;99.90
57664;DHT22;43493;53.098;6.064;2023-04-01T01:24:30;10.00;99.90
57664;DHT22;43493;53.098;6.064;2023-04-01T01:27:02;10.00;99.90
57664;DHT22;43493;53.098;6.064;2023-04-01T01:32:30;10.00;99.90
57664;DHT22;43493;53.098;6.064;2023-04-01T01:37:46;10.00;99.90
57664;DHT22;43493;53.098;6.064;2023-04-01T01:40:13;10.00;99.90
57664;DHT22;43493;53.098;6.064;2023-04-01T01:42:43;10.00;99.90
57664;DHT22;43493;53.098;6.064;2023-04-01T01:45:12;10.00;99.90
57664;DHT22;43493;53.098;6.064;2023-04-01T01:47:41;9.90;99.90
57664;DHT22;43493;53.098;6.064;2023-04-01T01:50:09;10.00;99.90
57664;DHT22;43493;53.098;6.064;2023-04-01T01:52:36;10.00;99.90
57664;DHT22;43493;53.098;6.064;2023-04-01T01:55:01;10.00;99.90
57664;DHT22;43493;53.098;6.064;2023-04-01T01:57:33;10.00;99.90
57664;DHT22;43493;53.098;6.064;2023-04-01T02:00:06;10.00;99.90
57664;DHT22;43493;53.098;6.064;2023-04-01T02:02:40;10.00;99.90
57664;DHT22;43493;53.098;6.064;2023-04-01T02:05:10;10.00;99.90
57664;DHT22;43493;53.098;6.064;2023-04-01T02:07:44;10.00;99.90
57664;DHT22;43493;53.098;6.064;2023-04-01T02:10:13;10.00;99.90
57664;DHT22;43493;53.098;6.064;2023-04-01T02:12:39;9.90;99.90
57664;DHT22;43493;53.098;6.064;2023-04-01T02:15:09;10.00;99.90
57664;DHT22;43493;53.098;6.064;2023-04-01T02:17:38;10.00;99.90
57664;DHT22;43493;53.098;6.064;2023-04-01T02:20:15;9.90;99.90
57664;DHT22;43493;53.098;6.064;2023-04-01T02:22:52;9.90;99.90
57664;DHT22;43493;53.098;6.064;2023-04-01T02:25:23;9.90;99.90
57664;DHT22;43493;53.098;6.064;2023-04-01T02:27:50;9.90;99.90
57664;DHT22;43493;53.098;6.064;2023-04-01T02:30:17;9.90;99.90
57664;DHT22;43493;53.098;6.064;2023-04-01T02:32:44;9.90;99.90
57664;DHT22;43493;53.098;6.064;2023-04-01T02:35:12;9.90;99.90
57664;DHT22;43493;53.098;6.064;2023-04-01T02:37:40;9.90;99.90
57664;DHT22;43493;53.098;6.064;2023-04-01T02:40:13;9.90;99.90
57664;DHT22;43493;53.098;6.064;2023-04-01T02:42:39;9.80;99.90
57664;DHT22;43493;53.098;6.064;2023-04-01T02:45:06;9.80;99.90
57664;DHT22;43493;53.098;6.064;2023-04-01T02:47:32;9.80;99.90
57664;DHT22;43493;53.098;6.064;2023-04-01T02:49:58;9.80;99.90
57664;DHT22;43493;53.098;6.064;2023-04-01T02:52:28;9.80;99.90
57664;DHT22;43493;53.098;6.064;2023-04-01T02:54:54;9.80;99.90
57664;DHT22;43493;53.098;6.064;2023-04-01T02:57:20;9.80;99.90
57664;DHT22;43493;53.098;6.064;2023-04-01T02:59:46;9.80;99.90
57664;DHT22;43493;53.098;6.064;2023-04-01T03:02:12;9.80;99.90
57664;DHT22;43493;53.098;6.064;2023-04-01T03:04:38;9.80;99.90
57664;DHT22;43493;53.098;6.064;2023-04-01T03:07:04;9.80;99.90
57664;DHT22;43493;53.098;6.064;2023-04-01T03:09:30;9.80;99.90
57664;DHT22;43493;53.098;6.064;2023-04-01T03:11:56;9.80;99.90
57664;DHT22;43493;53.098;6.064;2023-04-01T03:14:22;9.80;99.90
57664;DHT22;43493;53.098;6.064;2023-04-01T03:16:47;9.80;99.90
57664;DHT22;43493;53.098;6.064;2023-04-01T03:19:13;9.80;99.90
57664;DHT22;43493;53.098;6.064;2023-04-01T03:21:39;9.80;99.90
57664;DHT22;43493;53.098;6.064;2023-04-01T03:24:05;9.80;99.90
57664;DHT22;43493;53.098;6.064;2023-04-01T03:26:31;9.80;99.90
57664;DHT22;43493;53.098;6.064;2023-04-01T03:28:57;9.80;99.90
57664;DHT22;43493;53.098;6.064;2023-04-01T03:31:23;9.90;99.90
57664;DHT22;43493;53.098;6.064;2023-04-01T03:33:50;9.80;99.90
57664;DHT22;43493;53.098;6.064;2023-04-01T03:36:15;9.80;99.90
57664;DHT22;43493;53.098;6.064;2023-04-01T03:38:42;9.80;99.90
57664;DHT22;43493;53.098;6.064;2023-04-01T03:41:14;9.80;99.90
57664;DHT22;43493;53.098;6.064;2023-04-01T03:43:41;9.80;99.90
57664;DHT22;43493;53.098;6.064;2023-04-01T03:46:06;9.80;99.90
57664;DHT22;43493;53.098;6.064;2023-04-01T03:48:32;9.80;99.90
57664;DHT22;43493;53.098;6.064;2023-04-01T03:50:58;9.80;99.90
57664;DHT22;43493;53.098;6.064;2023-04-01T03:53:24;9.80;99.90
57664;DHT22;43493;53.098;6.064;2023-04-01T03:55:50;9.90;99.90
57664;DHT22;43493;53.098;6.064;2023-04-01T03:58:17;9.90;99.90
57664;DHT22;43493;53.098;6.064;2023-04-01T04:00:43;9.80;99.90
57664;DHT22;43493;53.098;6.064;2023-04-01T04:03:09;9.80;99.90
57664;DHT22;43493;53.098;6.064;2023-04-01T04:05:34;9.80;99.90
57664;DHT22;43493;53.098;6.064;2023-04-01T04:08:01;9.80;99.90
57664;DHT22;43493;53.098;6.064;2023-04-01T04:10:26;9.80;99.90
57664;DHT22;43493;53.098;6.064;2023-04-01T04:12:54;9.90;99.90
57664;DHT22;43493;53.098;6.064;2023-04-01T04:15:20;9.80;99.90
57664;DHT22;43493;53.098;6.064;2023-04-01T04:17:46;9.80;99.90
57664;DHT22;43493;53.098;6.064;2023-04-01T04:20:12;9.80;99.90
57664;DHT22;43493;53.098;6.064;2023-04-01T04:22:38;9.80;99.90
57664;DHT22;43493;53.098;6.064;2023-04-01T04:25:05;9.80;99.90
57664;DHT22;43493;53.098;6.064;2023-04-01T04:27:31;9.80;99.90
57664;DHT22;43493;53.098;6.064;2023-04-01T04:29:56;9.80;99.90
57664;DHT22;43493;53.098;6.064;2023-04-01T04:32:22;9.80;99.90
57664;DHT22;43493;53.098;6.064;2023-04-01T04:34:48;9.80;99.90
57664;DHT22;43493;53.098;6.064;2023-04-01T04:37:13;9.90;99.90
57664;DHT22;43493;53.098;6.064;2023-04-01T04:39:39;9.80;99.90
57664;DHT22;43493;53.098;6.064;2023-04-01T04:42:05;9.80;99.90
57664;DHT22;43493;53.098;6.064;2023-04-01T04:44:31;9.80;99.90
57664;DHT22;43493;53.098;6.064;2023-04-01T04:46:57;9.80;99.90
57664;DHT22;43493;53.098;6.064;2023-04-01T04:49:23;9.80;99.90
57664;DHT22;43493;53.098;6.064;2023-04-01T04:51:48;9.80;99.90
57664;DHT22;43493;53.098;6.064;2023-04-01T04:54:15;9.80;99.90
57664;DHT22;43493;53.098;6.064;2023-04-01T04:56:40;9.80;99.90
57664;DHT22;43493;53.098;6.064;2023-04-01T04:59:06;9.80;99.90
57664;DHT22;43493;53.098;6.064;2023-04-01T05:01:32;9.90;99.90
57664;DHT22;43493;53.098;6.064;2023-04-01T05:03:59;9.80;99.90
57664;DHT22;43493;53.098;6.064;2023-04-01T05:06:25;9.80;99.90
57664;DHT22;43493;53.098;6.064;2023-04-01T05:08:55;9.90;99.90
57664;DHT22;43493;53.098;6.064;2023-04-01T05:11:22;9.90;99.90
57664;DHT22;43493;53.098;6.064;2023-04-01T05:13:47;9.80;99.90
57664;DHT22;43493;53.098;6.064;2023-04-01T05:16:16;9.80;99.90
57664;DHT22;43493;53.098;6.064;2023-04-01T05:18:42;9.80;99.90
57664;DHT22;43493;53.098;6.064;2023-04-01T05:21:09;9.80;99.90
57664;DHT22;43493;53.098;6.064;2023-04-01T05:23:35;9.80;99.90
57664;DHT22;43493;53.098;6.064;2023-04-01T05:26:12;9.80;99.90
57664;DHT22;43493;53.098;6.064;2023-04-01T05:28:38;9.80;99.90
57664;DHT22;43493;53.098;6.064;2023-04-01T05:31:05;9.80;99.90
57664;DHT22;43493;53.098;6.064;2023-04-01T05:33:31;9.80;99.90
57664;DHT22;43493;53.098;6.064;2023-04-01T05:36:09;9.80;99.90
57664;DHT22;43493;53.098;6.064;2023-04-01T05:38:35;9.80;99.90
57664;DHT22;43493;53.098;6.064;2023-04-01T05:41:02;9.80;99.90
57664;DHT22;43493;53.098;6.064;2023-04-01T05:43:28;9.80;99.90
57664;DHT22;43493;53.098;6.064;2023-04-01T05:45:55;9.80;99.90
57664;DHT22;43493;53.098;6.064;2023-04-01T05:48:21;9.80;99.90
57664;DHT22;43493;53.098;6.064;2023-04-01T05:50:46;9.80;99.90
57664;DHT22;43493;53.098;6.064;2023-04-01T05:53:12;9.80;99.90
57664;DHT22;43493;53.098;6.064;2023-04-01T05:55:38;9.80;99.90
57664;DHT22;43493;53.098;6.064;2023-04-01T05:58:04;9.80;99.90
57664;DHT22;43493;53.098;6.064;2023-04-01T06:00:30;9.80;99.90
57664;DHT22;43493;53.098;6.064;2023-04-01T06:02:58;9.80;99.90
57664;DHT22;43493;53.098;6.064;2023-04-01T06:05:28;9.80;99.90
57664;DHT22;43493;53.098;6.064;2023-04-01T06:08:05;9.90;99.90
57664;DHT22;43493;53.098;6.064;2023-04-01T06:16:17;9.80;99.90
57664;DHT22;43493;53.098;6.064;2023-04-01T06:22:20;9.80;99.90
57664;DHT22;43493;53.098;6.064;2023-04-01T06:28:22;9.90;99.90
57664;DHT22;43493;53.098;6.064;2023-04-01T06:31:35;9.90;99.90
57664;DHT22;43493;53.098;6.064;2023-04-01T06:42:58;10.00;99.90
57664;DHT22;43493;53.098;6.064;2023-04-01T06:50:33;10.00;99.90
57664;DHT22;43493;53.098;6.064;2023-04-01T06:56:09;10.00;99.90
57664;DHT22;43493;53.098;6.064;2023-04-01T06:58:53;10.00;99.90
57664;DHT22;43493;53.098;6.064;2023-04-01T07:01:28;10.00;99.90
57664;DHT22;43493;53.098;6.064;2023-04-01T07:04:15;10.00;99.90
57664;DHT22;43493;53.098;6.064;2023-04-01T07:07:18;10.00;99.90
57664;DHT22;43493;53.098;6.064;2023-04-01T07:09:52;10.10;99.90
57664;DHT22;43493;53.098;6.064;2023-04-01T07:12:35;10.10;99.90
57664;DHT22;43493;53.098;6.064;2023-04-01T07:15:28;10.10;99.90
57664;DHT22;43493;53.098;6.064;2023-04-01T07:18:22;10.00;99.90
57664;DHT22;43493;53.098;6.064;2023-04-01T07:20:52;10.00;99.90
57664;DHT22;43493;53.098;6.064;2023-04-01T07:23:28;10.00;99.90
57664;DHT22;43493;53.098;6.064;2023-04-01T07:26:01;10.00;99.90
57664;DHT22;43493;53.098;6.064;2023-04-01T07:28:32;10.00;99.90
57664;DHT22;43493;53.098;6.064;2023-04-01T07:34:09;10.00;99.90
57664;DHT22;43493;53.098;6.064;2023-04-01T07:36:48;10.00;99.90
57664;DHT22;43493;53.098;6.064;2023-04-01T07:42:43;10.00;99.90
57664;DHT22;43493;53.098;6.064;2023-04-01T07:45:47;10.00;99.90
57664;DHT22;43493;53.098;6.064;2023-04-01T07:59:15;10.40;99.90
57664;DHT22;43493;53.098;6.064;2023-04-01T08:01:50;10.40;99.90
57664;DHT22;43493;53.098;6.064;2023-04-01T08:04:34;10.40;99.90
57664;DHT22;43493;53.098;6.064;2023-04-01T08:08:14;10.40;99.90
57664;DHT22;43493;53.098;6.064;2023-04-01T08:10:18;10.50;99.90
57664;DHT22;43493;53.098;6.064;2023-04-01T08:13:11;10.50;99.90
57664;DHT22;43493;53.098;6.064;2023-04-01T08:20:59;10.60;99.90
57664;DHT22;43493;53.098;6.064;2023-04-01T08:23:31;10.70;99.90
57664;DHT22;43493;53.098;6.064;2023-04-01T08:26:06;10.70;99.90
57664;DHT22;43493;53.098;6.064;2023-04-01T08:28:52;10.70;99.90
57664;DHT22;43493;53.098;6.064;2023-04-01T08:31:24;10.70;99.90
57664;DHT22;43493;53.098;6.064;2023-04-01T08:33:53;10.70;99.90
57664;DHT22;43493;53.098;6.064;2023-04-01T08:36:36;10.80;99.90
57664;DHT22;43493;53.098;6.064;2023-04-01T08:39:14;10.80;99.90
57664;DHT22;43493;53.098;6.064;2023-04-01T08:45:15;10.90;99.90
57664;DHT22;43493;53.098;6.064;2023-04-01T08:53:21;10.90;99.90
57664;DHT22;43493;53.098;6.064;2023-04-01T08:56:14;10.90;99.90
57664;DHT22;43493;53.098;6.064;2023-04-01T09:04:19;11.00;99.90
57664;DHT22;43493;53.098;6.064;2023-04-01T09:07:24;11.00;99.90
57664;DHT22;43493;53.098;6.064;2023-04-01T09:18:31;11.10;99.90
57664;DHT22;43493;53.098;6.064;2023-04-01T09:21:10;11.10;99.90
57664;DHT22;43493;53.098;6.064;2023-04-01T09:23:47;11.10;99.90
57664;DHT22;43493;53.098;6.064;2023-04-01T09:32:58;10.90;99.90
57664;DHT22;43493;53.098;6.064;2023-04-01T09:38:14;10.90;99.90
57664;DHT22;43493;53.098;6.064;2023-04-01T09:40:55;10.80;99.90
57664;DHT22;43493;53.098;6.064;2023-04-01T09:43:26;10.80;99.90
57664;DHT22;43493;53.098;6.064;2023-04-01T09:52:21;10.60;99.90
57664;DHT22;43493;53.098;6.064;2023-04-01T10:27:12;10.40;99.90
57664;DHT22;43493;53.098;6.064;2023-04-01T10:30:06;10.40;99.90
57664;DHT22;43493;53.098;6.064;2023-04-01T10:33:24;10.40;99.90
57664;DHT22;43493;53.098;6.064;2023-04-01T10:45:00;10.20;99.90
57664;DHT22;43493;53.098;6.064;2023-04-01T11:15:14;10.10;99.90
57664;DHT22;43493;53.098;6.064;2023-04-01T11:22:46;10.00;99.90
57664;DHT22;43493;53.098;6.064;2023-04-01T11:51:29;10.70;99.90
57664;DHT22;43493;53.098;6.064;2023-04-01T12:25:46;10.10;99.90
57664;DHT22;43493;53.098;6.064;2023-04-01T12:35:13;10.00;99.90
57664;DHT22;43493;53.098;6.064;2023-04-01T12:46:25;9.80;99.90
57664;DHT22;43493;53.098;6.064;2023-04-01T12:50:26;9.80;99.90
57664;DHT22;43493;53.098;6.064;2023-04-01T12:54:16;9.70;99.90
57664;DHT22;43493;53.098;6.064;2023-04-01T12:57:58;9.80;99.90
57664;DHT22;43493;53.098;6.064;2023-04-01T17:45:47;7.40;99.90
57664;DHT22;43493;53.098;6.064;2023-04-01T18:01:35;7.30;99.90
57664;DHT22;43493;53.098;6.064;2023-04-01T18:04:30;7.30;99.90
57664;DHT22;43493;53.098;6.064;2023-04-01T18:18:26;7.30;99.90
57664;DHT22;43493;53.098;6.064;2023-04-01T18:21:03;7.20;99.90
57664;DHT22;43493;53.098;6.064;2023-04-01T18:23:56;7.20;99.90
57664;DHT22;43493;53.098;6.064;2023-04-01T18:26:32;7.20;99.90
57664;DHT22;43493;53.098;6.064;2023-04-01T18:29:23;7.10;99.90
57664;DHT22;43493;53.098;6.064;2023-04-01T18:31:53;7.10;99.90
57664;DHT22;43493;53.098;6.064;2023-04-01T18:34:40;7.10;99.90
57664;DHT22;43493;53.098;6.064;2023-04-01T18:37:37;7.00;99.90
57664;DHT22;43493;53.098;6.064;2023-04-01T18:40:20;7.10;99.90
57664;DHT22;43493;53.098;6.064;2023-04-01T18:45:37;7.00;99.90
57664;DHT22;43493;53.098;6.064;2023-04-01T18:50:53;7.10;99.90
57664;DHT22;43493;53.098;6.064;2023-04-01T18:53:52;7.00;99.90
57664;DHT22;43493;53.098;6.064;2023-04-01T18:56:30;7.00;99.90
57664;DHT22;43493;53.098;6.064;2023-04-01T19:01:55;7.10;99.90
57664;DHT22;43493;53.098;6.064;2023-04-01T19:13:02;6.90;99.90
57664;DHT22;43493;53.098;6.064;2023-04-01T19:26:34;6.90;99.90
57664;DHT22;43493;53.098;6.064;2023-04-01T19:37:25;6.80;99.90
57664;DHT22;43493;53.098;6.064;2023-04-01T19:39:56;6.80;99.90
57664;DHT22;43493;53.098;6.064;2023-04-01T19:50:51;6.80;99.90
57664;DHT22;43493;53.098;6.064;2023-04-01T19:53:39;6.70;99.90
57664;DHT22;43493;53.098;6.064;2023-04-01T19:56:16;6.60;99.90
57664;DHT22;43493;53.098;6.064;2023-04-01T19:58:54;6.60;99.90
57664;DHT22;43493;53.098;6.064;2023-04-01T20:01:41;6.60;99.90
57664;DHT22;43493;53.098;6.064;2023-04-01T20:04:26;6.60;99.90
57664;DHT22;43493;53.098;6.064;2023-04-01T20:07:04;6.60;99.90
57664;DHT22;43493;53.098;6.064;2023-04-01T20:15:28;6.60;99.90
57664;DHT22;43493;53.098;6.064;2023-04-01T20:17:56;6.60;99.90
57664;DHT22;43493;53.098;6.064;2023-04-01T20:20:30;6.50;99.90
57664;DHT22;43493;53.098;6.064;2023-04-01T20:23:24;6.50;99.90
57664;DHT22;43493;53.098;6.064;2023-04-01T20:25:56;6.50;99.90
57664;DHT22;43493;53.098;6.064;2023-04-01T20:31:36;6.40;99.90
57664;DHT22;43493;53.098;6.064;2023-04-01T20:37:29;6.40;99.90
57664;DHT22;43493;53.098;6.064;2023-04-01T20:45:35;6.40;99.90
57664;DHT22;43493;53.098;6.064;2023-04-01T20:50:51;6.30;99.90
57664;DHT22;43493;53.098;6.064;2023-04-01T20:53:42;6.30;99.90
57664;DHT22;43493;53.098;6.064;2023-04-01T21:01:44;6.30;99.90
57664;DHT22;43493;53.098;6.064;2023-04-01T21:07:31;6.30;99.90
57664;DHT22;43493;53.098;6.064;2023-04-01T21:35:01;6.10;99.90
57664;DHT22;43493;53.098;6.064;2023-04-01T21:37:42;6.10;99.90
57664;DHT22;43493;53.098;6.064;2023-04-01T21:54:21;6.00;99.90
57664;DHT22;43493;53.098;6.064;2023-04-01T22:02:51;6.10;99.90
57664;DHT22;43493;53.098;6.064;2023-04-01T22:05:37;6.00;99.90
57664;DHT22;43493;53.098;6.064;2023-04-01T22:14:14;6.00;99.90
57664;DHT22;43493;53.098;6.064;2023-04-01T22:16:53;5.90;99.90
57664;DHT22;43493;53.098;6.064;2023-04-01T22:19:46;5.90;99.90
57664;DHT22;43493;53.098;6.064;2023-04-01T22:25:43;6.00;99.90
57664;DHT22;43493;53.098;6.064;2023-04-01T22:30:52;5.90;99.90
57664;DHT22;43493;53.098;6.064;2023-04-01T22:43:02;5.80;99.90
57664;DHT22;43493;53.098;6.064;2023-04-01T22:45:02;5.80;99.90
57664;DHT22;43493;53.098;6.064;2023-04-01T22:47:42;5.80;99.90
57664;DHT22;43493;53.098;6.064;2023-04-01T22:52:47;5.80;99.90
57664;DHT22;43493;53.098;6.064;2023-04-01T22:55:22;5.80;99.90
57664;DHT22;43493;53.098;6.064;2023-04-01T22:57:58;5.80;99.90
57664;DHT22;43493;53.098;6.064;2023-04-01T23:03:32;5.70;99.90
57664;DHT22;43493;53.098;6.064;2023-04-01T23:06:03;5.80;99.90
57664;DHT22;43493;53.098;6.064;2023-04-01T23:11:31;5.70;99.90
57664;DHT22;43493;53.098;6.064;2023-04-01T23:16:41;5.60;99.90
57664;DHT22;43493;53.098;6.064;2023-04-01T23:19:20;5.60;99.90
57664;DHT22;43493;53.098;6.064;2023-04-01T23:24:59;5.50;99.90
57664;DHT22;43493;53.098;6.064;2023-04-01T23:27:38;5.40;99.90
57664;DHT22;43493;53.098;6.064;2023-04-01T23:33:27;5.40;99.90
57664;DHT22;43493;53.098;6.064;2023-04-01T23:36:00;5.30;99.90
57664;DHT22;43493;53.098;6.064;2023-04-01T23:38:37;5.20;99.90
57664;DHT22;43493;53.098;6.064;2023-04-01T23:41:05;5.20;99.90
57664;DHT22;43493;53.098;6.064;2023-04-01T23:43:36;5.10;99.90
57664;DHT22;43493;53.098;6.064;2023-04-01T23:46:02;5.10;99.90
57664;DHT22;43493;53.098;6.064;2023-04-01T23:48:43;5.10;99.90
57664;DHT22;43493;53.098;6.064;2023-04-01T23:51:29;5.10;99.90
57664;DHT22;43493;53.098;6.064;2023-04-01T23:54:01;5.10;99.90
57664;DHT22;43493;53.098;6.064;2023-04-01T23:56:38;5.10;99.90
57664;DHT22;43493;53.098;6.064;2023-04-01T23:59:04;5.00;99.90
